Addison, New York
Current Conditions -  °F | °C
As of 5:53 PM on Saturday 25 Oct 2014 (Local Time) from KELM Reporting Station
Broken Clouds Broken Clouds  
Wind Chill: 65°   Ceiling: 9000
Heat Index: 65°   Visibility: 10mi
Dew Point: 47°   Wind: 9mph
Humidity: 52%   Direction: 240°WSW
Pressure: 29.59"   Gusts: NA
Location:  42.1°N, 77.23°W
Report Text: KELM 252153Z AUTO 24008KT 10SM FEW070 BKN090 18/08 A2959 RMK AO2 SLP020 T01830083
Loading
Personal Weather Stations






























Interactive Weather Map New forecast layout! Learn more

10-Day Weather Forecast

Advertisements
Track Severe Weather on mobile